createdAt,value
2023-03-10T00:00:13.564Z,95483.69
2023-03-10T00:02:45.270Z,95492.41
2023-03-10T00:05:19.035Z,95486.44
2023-03-10T00:07:50.925Z,95481.50
2023-03-10T00:10:22.907Z,95486.91
2023-03-10T00:12:55.216Z,95485.34
2023-03-10T00:15:27.078Z,95481.03
2023-03-10T00:17:58.837Z,95484.09
2023-03-10T00:20:30.496Z,95485.00
2023-03-10T00:23:02.293Z,95487.97
2023-03-10T00:25:33.988Z,95476.66
2023-03-10T00:28:05.801Z,95491.00
2023-03-10T00:30:37.483Z,95490.41
2023-03-10T00:33:09.137Z,95495.03
2023-03-10T00:35:40.735Z,95495.38
2023-03-10T00:38:12.457Z,95492.16
2023-03-10T00:40:44.214Z,95497.50
2023-03-10T00:43:15.892Z,95504.25
2023-03-10T00:45:47.620Z,95488.16
2023-03-10T00:48:19.703Z,95495.84
2023-03-10T00:50:51.510Z,95499.97
2023-03-10T00:53:24.094Z,95502.84
2023-03-10T00:56:01.569Z,95489.53
2023-03-10T00:58:34.999Z,95495.00
2023-03-10T01:01:17.886Z,95497.84
2023-03-10T01:03:55.270Z,95504.25
2023-03-10T01:06:27.765Z,95504.16
2023-03-10T01:09:00.885Z,95497.47
2023-03-10T01:11:33.182Z,95506.63
2023-03-10T01:14:08.684Z,95504.25
2023-03-10T01:16:40.441Z,95511.47
2023-03-10T01:19:12.201Z,95503.78
2023-03-10T01:21:44.108Z,95504.56
2023-03-10T01:24:16.203Z,95502.97
2023-03-10T01:26:48.023Z,95491.06
2023-03-10T01:29:19.748Z,95492.66
2023-03-10T01:31:51.653Z,95497.34
2023-03-10T01:34:23.406Z,95500.19
2023-03-10T01:36:56.343Z,95500.97
2023-03-10T01:39:28.274Z,95495.16
2023-03-10T01:42:00.433Z,95497.06
2023-03-10T01:44:32.345Z,95486.88
2023-03-10T01:47:04.378Z,95480.44
2023-03-10T01:49:45.128Z,95473.72
2023-03-10T01:52:26.455Z,95455.41
2023-03-10T01:54:58.175Z,95463.56
2023-03-10T01:57:37.625Z,95463.22
2023-03-10T02:00:10.862Z,95459.44
2023-03-10T02:03:07.776Z,95455.97
2023-03-10T02:05:51.658Z,95456.94
2023-03-10T02:08:25.888Z,95448.78
2023-03-10T02:10:59.219Z,95443.66
2023-03-10T02:13:30.886Z,95443.25
2023-03-10T02:16:03.586Z,95431.06
2023-03-10T02:18:35.639Z,95439.38
2023-03-10T02:21:27.675Z,95430.28
2023-03-10T02:24:06.219Z,95407.25
2023-03-10T02:26:56.396Z,95385.00
2023-03-10T02:30:02.643Z,95381.13
2023-03-10T02:32:45.277Z,95362.06
2023-03-10T02:35:17.433Z,95359.91
2023-03-10T02:37:58.036Z,95354.81
2023-03-10T02:40:50.758Z,95343.97
2023-03-10T02:43:30.046Z,95334.09
2023-03-10T02:46:09.169Z,95331.13
2023-03-10T02:48:45.454Z,95327.38
2023-03-10T02:51:28.497Z,95322.22
2023-03-10T02:54:03.455Z,95322.56
2023-03-10T02:56:37.139Z,95316.19
2023-03-10T02:59:09.845Z,95313.03
2023-03-10T03:01:45.949Z,95309.81
2023-03-10T03:04:18.635Z,95299.88
2023-03-10T03:06:51.108Z,95302.81
2023-03-10T03:09:22.980Z,95307.75
2023-03-10T03:11:54.707Z,95302.63
2023-03-10T03:14:26.363Z,95307.63
2023-03-10T03:16:58.405Z,95299.47
2023-03-10T03:19:30.705Z,95291.94
2023-03-10T03:22:03.228Z,95283.91
2023-03-10T03:24:35.130Z,95277.78
2023-03-10T03:27:07.552Z,95280.09
2023-03-10T03:29:40.077Z,95256.69
2023-03-10T03:32:11.959Z,95245.00
2023-03-10T03:34:43.884Z,95235.81
2023-03-10T03:37:16.873Z,95213.19
2023-03-10T03:39:48.839Z,95204.31
2023-03-10T03:42:21.586Z,95190.00
2023-03-10T03:44:58.020Z,95187.31
2023-03-10T03:47:29.859Z,95190.38
2023-03-10T03:50:03.360Z,95180.03
2023-03-10T03:52:35.551Z,95170.56
2023-03-10T03:55:10.045Z,95174.44
2023-03-10T03:57:44.196Z,95163.75
2023-03-10T04:00:22.731Z,95155.63
2023-03-10T04:03:01.961Z,95144.00
2023-03-10T04:05:35.151Z,95141.50
2023-03-10T04:08:08.155Z,95141.56
2023-03-10T04:10:39.814Z,95141.22
2023-03-10T04:13:11.719Z,95126.91
2023-03-10T04:15:43.710Z,95129.91
2023-03-10T04:18:15.449Z,95128.09
2023-03-10T04:20:47.651Z,95126.31
2023-03-10T04:23:21.310Z,95131.66
2023-03-10T04:25:53.608Z,95099.78
2023-03-10T04:28:25.345Z,95082.59
2023-03-10T04:30:57.140Z,95076.84
2023-03-10T04:33:32.556Z,95058.53
2023-03-10T04:36:04.919Z,95055.09
2023-03-10T04:38:37.197Z,95055.06
2023-03-10T04:41:10.279Z,95040.97
2023-03-10T04:43:47.812Z,95024.84
2023-03-10T04:46:21.287Z,95022.41
2023-03-10T04:48:53.689Z,95035.97
2023-03-10T04:51:25.386Z,95045.53
2023-03-10T04:53:59.593Z,95067.53
2023-03-10T04:56:34.831Z,95084.66
2023-03-10T04:59:06.749Z,95089.19
2023-03-10T05:01:38.626Z,95071.97
2023-03-10T05:04:11.501Z,95097.63
2023-03-10T05:06:43.781Z,95116.00
2023-03-10T05:09:29.073Z,95127.16
2023-03-10T05:12:01.244Z,95126.06
2023-03-10T05:14:37.793Z,95110.44
2023-03-10T05:17:11.528Z,95111.09
2023-03-10T05:19:43.741Z,95080.41
2023-03-10T05:22:15.671Z,95071.00
2023-03-10T05:24:47.577Z,95057.44
2023-03-10T05:27:21.710Z,95036.31
2023-03-10T05:29:53.593Z,95055.09
2023-03-10T05:32:28.917Z,95051.47
2023-03-10T05:35:01.224Z,95046.72
2023-03-10T05:37:36.789Z,95053.53
2023-03-10T05:40:15.310Z,95063.00
2023-03-10T05:42:50.053Z,95071.91
2023-03-10T05:45:23.277Z,95070.59
2023-03-10T05:47:55.920Z,95076.38
2023-03-10T05:50:27.832Z,95089.44
2023-03-10T05:53:01.364Z,95109.56
2023-03-10T05:55:33.202Z,95100.59
2023-03-10T05:58:05.478Z,95097.66
2023-03-10T06:00:37.177Z,95104.03
2023-03-10T06:03:10.171Z,95104.03
2023-03-10T06:05:41.993Z,95122.72
2023-03-10T06:08:13.654Z,95112.47
2023-03-10T06:10:45.344Z,95122.63
2023-03-10T06:13:17.879Z,95130.41
2023-03-10T06:15:59.180Z,95140.88
2023-03-10T06:18:32.153Z,95150.38
2023-03-10T06:21:10.790Z,95162.53
2023-03-10T06:23:42.607Z,95159.38
2023-03-10T06:26:17.132Z,95178.00
2023-03-10T06:28:48.907Z,95167.91
2023-03-10T06:31:24.696Z,95172.28
2023-03-10T06:33:57.195Z,95170.03
2023-03-10T06:36:29.881Z,95175.94
2023-03-10T06:39:01.654Z,95184.50
2023-03-10T06:41:35.611Z,95165.06
2023-03-10T06:44:07.423Z,95167.63
2023-03-10T06:46:39.071Z,95182.59
2023-03-10T06:49:10.817Z,95179.81
2023-03-10T06:51:42.432Z,95180.16
2023-03-10T06:54:14.100Z,95155.81
2023-03-10T06:56:45.922Z,95155.09
2023-03-10T06:59:17.915Z,95179.28
2023-03-10T07:01:49.565Z,95141.59
2023-03-10T07:04:21.221Z,95139.47
2023-03-10T07:06:52.901Z,95159.06
2023-03-10T07:09:24.682Z,95170.56
2023-03-10T07:11:56.904Z,95172.16
2023-03-10T07:14:28.836Z,95170.66
2023-03-10T07:17:00.705Z,95199.56
2023-03-10T07:19:32.664Z,95210.97
2023-03-10T07:22:04.322Z,95199.94
2023-03-10T07:24:36.492Z,95230.19
2023-03-10T07:27:08.307Z,95236.66
2023-03-10T07:29:40.158Z,95241.81
2023-03-10T07:32:12.428Z,95247.00
2023-03-10T07:34:44.161Z,95229.94
2023-03-10T07:37:15.802Z,95258.88
2023-03-10T07:39:47.641Z,95243.28
2023-03-10T07:42:20.910Z,95258.22
2023-03-10T07:44:52.751Z,95259.34
2023-03-10T07:47:24.750Z,95259.50
2023-03-10T07:49:56.808Z,95251.66
2023-03-10T07:52:31.108Z,95255.13
2023-03-10T07:55:03.372Z,95268.75
2023-03-10T07:57:35.913Z,95278.66
2023-03-10T08:00:09.114Z,95272.97
2023-03-10T08:02:47.265Z,95291.09
2023-03-10T08:05:19.275Z,95285.03
2023-03-10T08:07:51.212Z,95299.63
2023-03-10T08:10:23.013Z,95305.22
2023-03-10T08:12:54.923Z,95309.47
2023-03-10T08:15:26.967Z,95311.22
2023-03-10T08:17:58.880Z,95324.28
2023-03-10T08:20:31.011Z,95317.91
2023-03-10T08:23:02.873Z,95308.69
2023-03-10T08:25:34.681Z,95308.16
2023-03-10T08:28:06.594Z,95313.25
2023-03-10T08:30:52.150Z,95323.47
2023-03-10T08:33:31.333Z,95323.69
2023-03-10T08:36:11.123Z,95340.34
2023-03-10T08:38:43.781Z,95363.97
2023-03-10T08:41:21.176Z,95366.94
2023-03-10T08:43:55.821Z,95389.34
2023-03-10T08:46:30.347Z,95374.84
2023-03-10T08:49:02.872Z,95405.53
2023-03-10T08:51:34.675Z,95406.00
2023-03-10T08:54:07.310Z,95417.50
2023-03-10T08:56:39.405Z,95419.06
2023-03-10T08:59:11.879Z,95422.50
2023-03-10T09:01:44.071Z,95417.97
2023-03-10T09:04:15.744Z,95416.25
2023-03-10T09:06:47.692Z,95407.19
2023-03-10T09:09:19.347Z,95415.78
2023-03-10T09:11:51.140Z,95427.84
2023-03-10T09:14:22.937Z,95407.97
2023-03-10T09:16:54.665Z,95424.38
2023-03-10T09:19:26.601Z,95412.47
2023-03-10T09:21:58.254Z,95426.06
2023-03-10T09:24:30.034Z,95427.00
2023-03-10T09:27:01.671Z,95423.88
2023-03-10T09:29:42.751Z,95453.00
2023-03-10T09:32:15.077Z,95454.25
2023-03-10T09:34:46.674Z,95457.53
2023-03-10T09:37:18.337Z,95450.63
2023-03-10T09:39:50.024Z,95443.41
2023-03-10T09:42:37.850Z,95461.88
2023-03-10T09:45:25.241Z,95481.03
2023-03-10T09:48:08.967Z,95473.34
2023-03-10T09:50:45.172Z,95476.09
2023-03-10T09:53:43.655Z,95479.75
2023-03-10T09:56:20.122Z,95487.56
2023-03-10T09:59:05.250Z,95495.53
2023-03-10T10:01:41.158Z,95493.41
2023-03-10T10:04:21.455Z,95518.34
2023-03-10T10:06:57.926Z,95512.53
2023-03-10T10:09:43.454Z,95522.91
2023-03-10T10:12:18.018Z,95526.34
2023-03-10T10:14:59.808Z,95535.25
2023-03-10T10:18:02.980Z,95527.44
2023-03-10T10:20:50.921Z,95535.41
2023-03-10T10:23:48.978Z,95531.66
2023-03-10T10:26:24.063Z,95541.84
2023-03-10T10:29:13.738Z,95543.56
2023-03-10T10:32:11.564Z,95540.72
2023-03-10T10:34:46.220Z,95533.84
2023-03-10T10:37:37.302Z,95527.44
2023-03-10T10:40:26.025Z,95523.34
2023-03-10T10:42:58.275Z,95534.94
2023-03-10T10:45:36.557Z,95549.19
2023-03-10T10:48:37.157Z,95536.84
2023-03-10T10:51:30.874Z,95536.81
2023-03-10T10:54:18.814Z,95559.25
2023-03-10T10:56:53.704Z,95542.47
2023-03-10T10:59:35.170Z,95540.44
2023-03-10T11:02:32.263Z,95550.09
2023-03-10T11:05:27.100Z,95546.63
2023-03-10T11:08:35.949Z,95578.50
2023-03-10T11:11:37.969Z,95595.22
2023-03-10T11:14:44.670Z,95589.06
2023-03-10T11:17:35.570Z,95612.06
2023-03-10T11:20:44.946Z,95612.53
2023-03-10T11:23:34.597Z,95633.78
2023-03-10T11:26:15.469Z,95635.44
2023-03-10T11:29:01.783Z,95642.66
2023-03-10T11:31:55.015Z,95638.56
2023-03-10T11:34:32.746Z,95655.97
2023-03-10T11:37:37.612Z,95648.34
2023-03-10T11:40:32.027Z,95662.13
2023-03-10T11:43:29.823Z,95650.56
2023-03-10T11:46:17.292Z,95653.41
2023-03-10T11:49:05.357Z,95655.13
2023-03-10T11:51:52.336Z,95641.06
2023-03-10T11:54:35.071Z,95652.38
2023-03-10T11:57:19.975Z,95655.66
2023-03-10T12:00:06.206Z,95672.59
2023-03-10T12:03:04.220Z,95670.22
2023-03-10T12:06:00.140Z,95680.28
2023-03-10T12:08:36.099Z,95700.63
2023-03-10T12:11:19.122Z,95683.09
2023-03-10T12:13:59.868Z,95715.81
2023-03-10T12:16:37.677Z,95709.19
2023-03-10T12:19:12.420Z,95699.09
2023-03-10T12:21:44.456Z,95708.66
2023-03-10T12:24:43.845Z,95717.63
2023-03-10T12:27:16.637Z,95721.56
2023-03-10T12:29:48.543Z,95701.94
2023-03-10T12:32:41.494Z,95707.16
2023-03-10T12:35:28.586Z,95707.69
2023-03-10T12:38:27.843Z,95715.25
2023-03-10T12:41:01.007Z,95732.19
2023-03-10T12:43:38.379Z,95725.09
2023-03-10T12:46:15.705Z,95736.38
2023-03-10T12:49:02.340Z,95738.72
2023-03-10T12:51:42.749Z,95744.06
2023-03-10T12:54:42.542Z,95726.88
2023-03-10T12:57:19.801Z,95750.88
2023-03-10T13:00:03.003Z,95733.00
2023-03-10T13:02:58.771Z,95729.69
2023-03-10T13:05:34.377Z,95731.53
2023-03-10T13:08:22.592Z,95724.34
2023-03-10T13:10:58.199Z,95704.25
2023-03-10T13:13:37.876Z,95741.47
2023-03-10T13:16:21.097Z,95751.16
2023-03-10T13:18:54.522Z,95752.22
2023-03-10T13:21:39.323Z,95756.91
2023-03-10T13:24:33.447Z,95770.84
2023-03-10T13:27:05.127Z,95795.50
2023-03-10T13:29:37.067Z,95781.84
2023-03-10T13:32:19.095Z,95776.97
2023-03-10T13:34:51.724Z,95770.38
2023-03-10T13:37:24.058Z,95770.00
2023-03-10T13:40:08.116Z,95758.00
2023-03-10T13:42:44.542Z,95776.25
2023-03-10T13:45:25.474Z,95781.97
2023-03-10T13:48:01.003Z,95756.50
2023-03-10T13:50:33.178Z,95790.53
2023-03-10T13:53:05.324Z,95792.78
2023-03-10T13:55:41.311Z,95788.91
2023-03-10T13:58:13.992Z,95783.75
2023-03-10T14:00:46.277Z,95802.84
2023-03-10T14:03:19.701Z,95813.34
2023-03-10T14:05:51.945Z,95806.28
2023-03-10T14:08:29.619Z,95810.72
2023-03-10T14:11:31.271Z,95821.09
2023-03-10T14:14:04.966Z,95828.47
2023-03-10T14:16:57.314Z,95825.50
2023-03-10T14:19:44.020Z,95820.00
2023-03-10T14:22:24.097Z,95816.09
2023-03-10T14:25:00.914Z,95811.56
2023-03-10T14:27:40.525Z,95811.25
2023-03-10T14:30:22.428Z,95820.03
2023-03-10T14:32:56.435Z,95818.19
2023-03-10T14:35:30.145Z,95824.75
2023-03-10T14:38:02.087Z,95836.97
2023-03-10T14:40:44.177Z,95828.19
2023-03-10T14:43:20.571Z,95847.78
2023-03-10T14:45:56.269Z,95832.44
2023-03-10T14:48:33.658Z,95834.97
2023-03-10T14:51:06.458Z,95815.66
2023-03-10T14:53:38.749Z,95829.47
2023-03-10T14:56:18.546Z,95839.69
2023-03-10T14:58:53.993Z,95845.78
2023-03-10T15:01:25.732Z,95829.63
2023-03-10T15:03:57.669Z,95824.63
2023-03-10T15:06:29.402Z,95845.47
2023-03-10T15:09:01.065Z,95819.56
2023-03-10T15:11:37.383Z,95806.72
2023-03-10T15:14:15.212Z,95814.88
2023-03-10T15:16:47.183Z,95810.19
2023-03-10T15:19:25.504Z,95805.78
2023-03-10T15:21:57.586Z,95813.47
2023-03-10T15:24:29.320Z,95833.41
2023-03-10T15:27:02.465Z,95804.06
2023-03-10T15:29:34.059Z,95819.44
2023-03-10T15:32:06.462Z,95829.50
2023-03-10T15:34:38.161Z,95825.91
2023-03-10T15:37:10.347Z,95801.41
2023-03-10T15:39:41.997Z,95833.88
2023-03-10T15:42:13.612Z,95820.88
2023-03-10T15:44:56.999Z,95831.09
2023-03-10T15:48:15.147Z,95832.94
2023-03-10T15:53:51.128Z,95867.34
2023-03-10T15:56:23.776Z,95881.16
2023-03-10T15:58:55.587Z,95893.72
2023-03-10T16:01:27.242Z,95901.91
2023-03-10T16:03:59.783Z,95898.91
2023-03-10T16:06:33.345Z,95901.09
2023-03-10T16:09:05.946Z,95913.97
2023-03-10T16:11:38.300Z,95909.59
2023-03-10T16:14:09.978Z,95904.72
2023-03-10T16:16:41.779Z,95890.88
2023-03-10T16:19:13.596Z,95893.69
2023-03-10T16:21:45.251Z,95899.38
2023-03-10T16:24:17.139Z,95914.44
2023-03-10T16:26:49.032Z,95913.50
2023-03-10T16:29:20.763Z,95913.19
2023-03-10T16:31:52.527Z,95943.00
2023-03-10T16:34:24.267Z,95953.97
2023-03-10T16:36:56.092Z,95952.69
2023-03-10T16:39:28.395Z,95952.00
2023-03-10T16:42:00.128Z,95951.59
2023-03-10T16:44:31.924Z,95931.13
2023-03-10T16:47:03.788Z,95935.25
2023-03-10T16:49:35.425Z,95925.69
2023-03-10T16:52:07.762Z,95920.84
2023-03-10T16:54:39.474Z,95934.16
2023-03-10T16:57:11.206Z,95950.16
2023-03-10T16:59:43.316Z,95940.69
2023-03-10T17:02:15.533Z,95937.94
2023-03-10T17:04:47.335Z,95946.91
2023-03-10T17:07:19.144Z,95940.63
2023-03-10T17:09:50.927Z,95950.91
2023-03-10T17:12:22.568Z,95960.16
2023-03-10T17:14:55.865Z,95961.34
2023-03-10T17:17:29.624Z,95976.22
2023-03-10T17:20:01.565Z,95979.94
2023-03-10T17:22:33.256Z,95970.00
2023-03-10T17:25:05.872Z,95977.31
2023-03-10T17:27:37.584Z,95981.25
2023-03-10T17:30:10.183Z,96001.69
2023-03-10T17:32:41.881Z,96003.41
2023-03-10T17:35:13.879Z,96012.41
2023-03-10T17:37:45.992Z,95979.84
2023-03-10T17:40:17.970Z,95994.38
2023-03-10T17:42:49.725Z,95986.97
2023-03-10T17:45:21.508Z,96022.50
2023-03-10T17:47:53.265Z,95982.63
2023-03-10T17:50:25.073Z,95993.78
2023-03-10T17:52:57.057Z,96001.88
2023-03-10T17:55:28.828Z,96011.25
2023-03-10T17:58:00.524Z,96003.34
2023-03-10T18:00:32.278Z,96005.88
2023-03-10T18:03:04.340Z,96021.44
2023-03-10T18:05:41.185Z,96041.34
2023-03-10T18:08:13.673Z,96052.31
2023-03-10T18:10:45.328Z,96068.09
2023-03-10T18:13:17.117Z,96061.31
2023-03-10T18:15:52.179Z,96065.81
2023-03-10T18:18:24.598Z,96050.16
2023-03-10T18:20:56.678Z,96022.78
2023-03-10T18:23:28.362Z,96043.97
2023-03-10T18:26:00.825Z,96039.09
2023-03-10T18:28:32.657Z,96074.44
2023-03-10T18:31:17.239Z,96097.00
2023-03-10T18:33:49.675Z,96073.44
2023-03-10T18:36:23.382Z,96079.13
2023-03-10T18:38:56.187Z,96085.56
2023-03-10T18:41:28.710Z,96070.69
2023-03-10T18:44:01.264Z,96084.56
2023-03-10T18:46:33.081Z,96075.31
2023-03-10T18:49:04.754Z,96081.22
2023-03-10T18:51:36.481Z,96087.16
2023-03-10T18:54:08.278Z,96095.72
2023-03-10T18:56:39.893Z,96109.56
2023-03-10T18:59:11.469Z,96104.31
2023-03-10T19:01:43.203Z,96096.28
2023-03-10T19:04:14.907Z,96093.56
2023-03-10T19:06:46.617Z,96096.59
2023-03-10T19:09:18.220Z,96108.50
2023-03-10T19:11:50.054Z,96128.09
2023-03-10T19:14:21.757Z,96135.13
2023-03-10T19:16:53.483Z,96138.63
2023-03-10T19:19:25.146Z,96143.03
2023-03-10T19:21:56.710Z,96145.31
2023-03-10T19:24:28.463Z,96151.53
2023-03-10T19:27:00.199Z,96154.56
2023-03-10T19:29:32.226Z,96140.84
2023-03-10T19:32:03.890Z,96159.16
2023-03-10T19:34:35.700Z,96156.38
2023-03-10T19:37:07.424Z,96145.47
2023-03-10T19:39:39.155Z,96152.63
2023-03-10T19:42:11.140Z,96163.13
2023-03-10T19:44:42.895Z,96164.22
2023-03-10T19:47:14.571Z,96162.19
2023-03-10T19:49:46.279Z,96172.81
2023-03-10T19:52:17.975Z,96166.22
2023-03-10T19:54:50.855Z,96176.19
2023-03-10T19:57:23.507Z,96171.97
2023-03-10T19:59:56.167Z,96181.50
2023-03-10T20:02:29.590Z,96196.97
2023-03-10T20:05:06.571Z,96189.44
2023-03-10T20:07:39.414Z,96176.59
2023-03-10T20:10:17.204Z,96171.44
2023-03-10T20:12:49.389Z,96171.16
2023-03-10T20:15:22.746Z,96169.84
2023-03-10T20:17:54.971Z,96174.84
2023-03-10T20:20:27.535Z,96171.50
2023-03-10T20:22:59.897Z,96164.81
2023-03-10T20:25:32.018Z,96183.25
2023-03-10T20:28:05.031Z,96179.31
2023-03-10T20:30:37.161Z,96174.94
2023-03-10T20:33:10.138Z,96186.78
2023-03-10T20:35:42.157Z,96180.59
2023-03-10T20:38:14.287Z,96180.22
2023-03-10T20:40:47.056Z,96188.84
2023-03-10T20:43:19.004Z,96199.88
2023-03-10T20:45:53.753Z,96185.00
2023-03-10T20:48:25.839Z,96204.44
2023-03-10T20:50:58.103Z,96199.69
2023-03-10T20:53:32.283Z,96196.59
2023-03-10T20:56:08.907Z,96193.91
2023-03-10T20:58:41.039Z,96197.19
2023-03-10T21:01:18.775Z,96209.06
2023-03-10T21:03:51.394Z,96189.25
2023-03-10T21:06:25.339Z,96198.09
2023-03-10T21:08:59.539Z,96200.28
2023-03-10T21:11:33.948Z,96201.97
2023-03-10T21:14:06.717Z,96188.22
2023-03-10T21:16:40.160Z,96202.63
2023-03-10T21:19:13.540Z,96201.41
2023-03-10T21:21:46.250Z,96197.09
2023-03-10T21:24:18.472Z,96218.50
2023-03-10T21:26:51.492Z,96212.00
2023-03-10T21:29:23.931Z,96203.88
2023-03-10T21:31:56.230Z,96213.88
2023-03-10T21:34:28.398Z,96211.31
2023-03-10T21:37:01.142Z,96205.66
2023-03-10T21:39:36.137Z,96209.66
2023-03-10T21:42:10.167Z,96212.72
2023-03-10T21:44:43.866Z,96213.88
2023-03-10T21:47:15.833Z,96202.28
2023-03-10T21:49:47.858Z,96208.06
2023-03-10T21:52:22.557Z,96201.69
2023-03-10T21:54:54.757Z,96205.19
2023-03-10T21:57:49.089Z,96207.78
2023-03-10T22:00:29.909Z,96222.06
2023-03-10T22:03:05.226Z,96228.19
2023-03-10T22:05:37.348Z,96228.88
2023-03-10T22:08:09.035Z,96223.28
2023-03-10T22:10:40.644Z,96216.75
2023-03-10T22:13:12.370Z,96216.44
2023-03-10T22:15:44.020Z,96216.13
2023-03-10T22:18:15.746Z,96218.84
2023-03-10T22:20:47.350Z,96219.06
2023-03-10T22:23:19.144Z,96211.53
2023-03-10T22:25:50.849Z,96216.22
2023-03-10T22:28:22.769Z,96208.34
2023-03-10T22:30:54.434Z,96205.63
2023-03-10T22:33:25.999Z,96209.19
2023-03-10T22:36:03.187Z,96201.22
2023-03-10T22:38:35.097Z,96199.09
2023-03-10T22:41:11.788Z,96200.34
2023-03-10T22:43:43.557Z,96192.53
2023-03-10T22:46:17.064Z,96188.25
2023-03-10T22:48:48.845Z,96187.97
2023-03-10T22:51:20.466Z,96194.63
2023-03-10T22:53:52.261Z,96169.19
2023-03-10T22:56:23.804Z,96164.84
2023-03-10T22:58:55.813Z,96152.75
2023-03-10T23:01:27.390Z,96151.22
2023-03-10T23:03:59.035Z,96133.22
2023-03-10T23:06:30.657Z,96126.69
2023-03-10T23:09:04.091Z,96142.16
2023-03-10T23:11:35.733Z,96137.94
2023-03-10T23:14:07.271Z,96142.66
2023-03-10T23:16:38.908Z,96127.44
2023-03-10T23:19:10.536Z,96124.19
2023-03-10T23:21:42.080Z,96110.06
2023-03-10T23:24:13.651Z,96104.19
2023-03-10T23:26:45.237Z,96113.88
2023-03-10T23:29:16.876Z,96129.25
2023-03-10T23:31:48.470Z,96111.91
2023-03-10T23:34:20.077Z,96105.50
2023-03-10T23:36:51.717Z,96112.84
2023-03-10T23:39:23.394Z,96118.59
2023-03-10T23:41:55.053Z,96133.56
2023-03-10T23:44:26.683Z,96096.63
2023-03-10T23:46:58.507Z,96089.41
2023-03-10T23:49:30.128Z,96097.25
2023-03-10T23:52:01.783Z,96094.81
2023-03-10T23:54:33.968Z,96096.97
2023-03-10T23:57:05.579Z,96083.78
2023-03-10T23:59:37.226Z,96079.25
